createdAt,value
2019-01-12T00:00:40.657Z,3.80
2019-01-12T00:03:09.677Z,6.53
2019-01-12T00:05:39.841Z,6.35
2019-01-12T00:08:08.849Z,8.15
2019-01-12T00:10:37.955Z,4.97
2019-01-12T00:13:08.967Z,10.30
2019-01-12T00:15:37.707Z,7.25
2019-01-12T00:18:06.809Z,3.40
2019-01-12T00:20:35.806Z,5.55
2019-01-12T00:23:04.850Z,8.13
2019-01-12T00:25:34.024Z,4.22
2019-01-12T00:28:03.000Z,6.45
2019-01-12T00:30:32.046Z,6.35
2019-01-12T00:33:03.107Z,6.87
2019-01-12T00:35:32.057Z,5.33
2019-01-12T00:38:01.145Z,6.60
2019-01-12T00:40:30.155Z,9.00
2019-01-12T00:43:01.320Z,5.00
2019-01-12T00:45:30.631Z,2.60
2019-01-12T00:47:59.839Z,3.25
2019-01-12T00:50:29.633Z,5.10
2019-01-12T00:52:58.855Z,4.78
2019-01-12T00:55:28.091Z,3.70
2019-01-12T00:57:57.327Z,5.30
2019-01-12T01:00:26.655Z,3.67
2019-01-12T01:02:55.834Z,7.97
2019-01-12T01:05:25.028Z,2.87
2019-01-12T01:07:54.158Z,2.08
2019-01-12T01:10:23.616Z,2.08
2019-01-12T01:12:52.740Z,4.95
2019-01-12T01:15:23.419Z,2.77
2019-01-12T01:17:52.572Z,2.90
2019-01-12T01:20:21.888Z,4.90
2019-01-12T01:22:51.062Z,6.65
2019-01-12T01:25:20.205Z,8.10
2019-01-12T01:27:49.359Z,4.58
2019-01-12T01:30:19.803Z,6.62
2019-01-12T01:32:48.974Z,6.78
2019-01-12T01:35:18.149Z,3.65
2019-01-12T01:37:47.275Z,5.58
2019-01-12T01:40:17.921Z,5.65
2019-01-12T01:42:47.179Z,6.60
2019-01-12T01:45:17.191Z,7.22
2019-01-12T01:47:46.356Z,5.62
2019-01-12T01:50:16.123Z,2.72
2019-01-12T01:52:45.383Z,7.60
2019-01-12T01:55:15.082Z,4.75
2019-01-12T01:57:45.155Z,4.40
2019-01-12T02:00:16.609Z,3.75
2019-01-12T02:02:45.993Z,3.72
2019-01-12T02:05:15.190Z,4.70
2019-01-12T02:07:44.438Z,4.22
2019-01-12T02:10:16.749Z,4.85
2019-01-12T02:12:45.866Z,7.33
2019-01-12T02:15:15.578Z,9.55
2019-01-12T02:17:44.714Z,9.60
2019-01-12T02:20:14.844Z,9.50
2019-01-12T02:22:44.649Z,10.32
2019-01-12T02:25:14.144Z,10.63
2019-01-12T02:27:43.453Z,15.48
2019-01-12T02:30:19.038Z,14.43
2019-01-12T02:32:48.216Z,17.00
2019-01-12T02:35:17.473Z,21.57
2019-01-12T02:37:46.670Z,16.52
2019-01-12T02:40:15.857Z,15.65
2019-01-12T02:42:45.103Z,16.05
2019-01-12T02:45:14.383Z,20.00
2019-01-12T02:47:44.719Z,15.40
2019-01-12T02:50:14.119Z,17.57
2019-01-12T02:52:43.371Z,23.10
2019-01-12T02:55:12.599Z,19.92
2019-01-12T02:57:41.860Z,20.60
2019-01-12T03:00:14.531Z,22.02
2019-01-12T03:02:43.771Z,20.32
2019-01-12T03:05:13.453Z,25.30
2019-01-12T03:07:42.739Z,20.52
2019-01-12T03:10:13.337Z,18.05
2019-01-12T03:12:42.588Z,25.20
2019-01-12T03:15:14.301Z,23.22
2019-01-12T03:17:43.528Z,18.52
2019-01-12T03:20:14.523Z,21.90
2019-01-12T03:22:43.761Z,21.90
2019-01-12T03:25:18.310Z,23.70
2019-01-12T03:27:43.941Z,25.90
2019-01-12T03:30:19.953Z,21.07
2019-01-12T03:32:51.619Z,24.12
2019-01-12T03:35:20.801Z,21.00
2019-01-12T03:37:49.951Z,18.75
2019-01-12T03:40:22.798Z,19.17
2019-01-12T03:42:52.001Z,18.17
2019-01-12T03:45:21.417Z,18.82
2019-01-12T03:47:50.821Z,16.85
2019-01-12T03:50:20.123Z,18.15
2019-01-12T03:52:49.284Z,13.72
2019-01-12T03:55:25.383Z,13.10
2019-01-12T03:57:49.463Z,16.60
2019-01-12T04:00:23.491Z,10.98
2019-01-12T04:02:52.766Z,13.45
2019-01-12T04:05:22.007Z,13.00
2019-01-12T04:07:51.251Z,11.57
2019-01-12T04:10:20.404Z,9.30
2019-01-12T04:12:49.656Z,11.05
2019-01-12T04:15:19.014Z,13.53
2019-01-12T04:17:48.387Z,11.55
2019-01-12T04:20:19.304Z,11.50
2019-01-12T04:22:48.415Z,12.47
2019-01-12T04:25:17.722Z,9.73
2019-01-12T04:27:46.924Z,9.85
2019-01-12T04:30:19.617Z,9.95
2019-01-12T04:32:50.347Z,10.80
2019-01-12T04:35:21.004Z,10.88
2019-01-12T04:37:52.135Z,9.25
2019-01-12T04:40:21.226Z,8.10
2019-01-12T04:42:51.819Z,9.18
2019-01-12T04:45:23.442Z,8.35
2019-01-12T04:47:55.090Z,8.13
2019-01-12T04:50:24.318Z,12.88
2019-01-12T04:52:53.518Z,8.48
2019-01-12T04:55:22.776Z,5.40
2019-01-12T04:57:53.092Z,8.48
2019-01-12T05:00:23.030Z,6.15
2019-01-12T05:02:53.417Z,9.78
2019-01-12T05:05:22.683Z,7.17
2019-01-12T05:07:51.777Z,8.78
2019-01-12T05:10:21.026Z,7.65
2019-01-12T05:12:50.251Z,10.53
2019-01-12T05:15:19.557Z,8.25
2019-01-12T05:17:48.752Z,7.90
2019-01-12T05:20:21.609Z,7.42
2019-01-12T05:22:51.894Z,12.47
2019-01-12T05:25:21.032Z,8.70
2019-01-12T05:27:50.275Z,10.28
2019-01-12T05:30:23.127Z,9.43
2019-01-12T05:32:52.477Z,9.30
2019-01-12T05:35:21.947Z,8.85
2019-01-12T05:37:51.262Z,7.72
2019-01-12T05:40:22.534Z,8.60
2019-01-12T05:42:52.806Z,8.88
2019-01-12T05:45:22.302Z,9.33
2019-01-12T05:47:52.637Z,9.23
2019-01-12T05:50:22.090Z,8.98
2019-01-12T05:52:52.151Z,8.65
2019-01-12T05:55:21.311Z,6.90
2019-01-12T05:57:50.559Z,11.50
2019-01-12T06:00:21.563Z,11.18
2019-01-12T06:02:50.675Z,11.20
2019-01-12T06:05:19.885Z,5.80
2019-01-12T06:07:49.231Z,9.53
2019-01-12T06:10:18.409Z,11.08
2019-01-12T06:12:47.569Z,9.58
2019-01-12T06:15:17.370Z,8.23
2019-01-12T06:17:46.524Z,8.60
2019-01-12T06:20:16.380Z,10.18
2019-01-12T06:22:45.583Z,12.05
2019-01-12T06:25:15.280Z,10.18
2019-01-12T06:27:46.605Z,12.37
2019-01-12T06:30:20.196Z,14.83
2019-01-12T06:32:49.349Z,11.80
2019-01-12T06:35:18.602Z,12.93
2019-01-12T06:37:47.844Z,12.20
2019-01-12T06:40:18.939Z,16.07
2019-01-12T06:42:48.373Z,13.95
2019-01-12T06:45:18.289Z,14.30
2019-01-12T06:47:47.640Z,13.98
2019-01-12T06:50:18.442Z,24.67
2019-01-12T06:52:47.672Z,14.60
2019-01-12T06:55:16.903Z,15.10
2019-01-12T06:57:46.332Z,15.95
2019-01-12T07:00:18.018Z,15.68
2019-01-12T07:02:48.346Z,13.60
2019-01-12T07:05:17.763Z,17.55
2019-01-12T07:07:46.918Z,12.35
2019-01-12T07:10:18.850Z,17.07
2019-01-12T07:12:49.617Z,11.85
2019-01-12T07:15:18.802Z,16.73
2019-01-12T07:17:50.004Z,14.98
2019-01-12T07:20:22.043Z,14.33
2019-01-12T07:22:52.306Z,19.73
2019-01-12T07:25:21.514Z,12.30
2019-01-12T07:27:50.624Z,18.12
2019-01-12T07:30:21.753Z,12.35
2019-01-12T07:32:50.934Z,16.07
2019-01-12T07:35:21.413Z,15.32
2019-01-12T07:37:50.617Z,12.25
2019-01-12T07:40:19.753Z,19.02
2019-01-12T07:42:49.252Z,13.35
2019-01-12T07:45:18.387Z,15.03
2019-01-12T07:47:47.832Z,17.27
2019-01-12T07:50:17.076Z,15.90
2019-01-12T07:52:46.255Z,16.35
2019-01-12T07:55:15.403Z,16.42
2019-01-12T07:57:44.565Z,19.92
2019-01-12T08:00:16.731Z,15.93
2019-01-12T08:02:46.058Z,20.30
2019-01-12T08:05:16.135Z,20.23
2019-01-12T08:07:45.255Z,17.98
2019-01-12T08:10:17.175Z,20.97
2019-01-12T08:12:46.449Z,19.52
2019-01-12T08:15:17.489Z,21.37
2019-01-12T08:17:46.652Z,19.50
2019-01-12T08:20:16.635Z,18.87
2019-01-12T08:22:45.799Z,16.35
2019-01-12T08:25:14.939Z,16.90
2019-01-12T08:27:45.211Z,15.63
2019-01-12T08:30:16.611Z,16.95
2019-01-12T08:32:45.840Z,16.02
2019-01-12T08:35:15.886Z,17.80
2019-01-12T08:37:45.037Z,16.48
2019-01-12T08:40:14.527Z,14.90
2019-01-12T08:42:43.679Z,12.95
2019-01-12T08:45:13.072Z,16.55
2019-01-12T08:47:42.406Z,18.23
2019-01-12T08:50:14.420Z,15.05
2019-01-12T08:52:43.734Z,18.35
2019-01-12T08:55:13.150Z,11.75
2019-01-12T08:57:42.351Z,17.57
2019-01-12T09:00:22.498Z,16.25
2019-01-12T09:02:53.019Z,21.73
2019-01-12T09:05:22.214Z,14.73
2019-01-12T09:07:51.545Z,14.70
2019-01-12T09:10:22.029Z,14.13
2019-01-12T09:12:51.451Z,11.20
2019-01-12T09:15:21.133Z,10.60
2019-01-12T09:17:51.150Z,8.70
2019-01-12T09:20:20.962Z,8.88
2019-01-12T09:22:50.680Z,9.95
2019-01-12T09:25:21.774Z,10.32
2019-01-12T09:27:50.703Z,9.98
2019-01-12T09:30:23.210Z,8.95
2019-01-12T09:32:52.683Z,9.53
2019-01-12T09:35:21.812Z,5.72
2019-01-12T09:37:51.087Z,11.43
2019-01-12T09:40:21.605Z,8.28
2019-01-12T09:42:51.274Z,7.17
2019-01-12T09:45:20.507Z,9.80
2019-01-12T09:47:49.685Z,10.10
2019-01-12T09:50:20.037Z,10.18
2019-01-12T09:52:49.387Z,8.05
2019-01-12T09:55:21.007Z,9.18
2019-01-12T09:57:50.201Z,8.98
2019-01-12T10:00:21.807Z,10.53
2019-01-12T10:02:50.906Z,9.63
2019-01-12T10:05:20.284Z,5.25
2019-01-12T10:07:49.375Z,8.93
2019-01-12T10:10:19.938Z,8.80
2019-01-12T10:12:49.356Z,11.53
2019-01-12T10:15:18.506Z,12.75
2019-01-12T10:17:49.506Z,9.80
2019-01-12T10:20:19.527Z,10.38
2019-01-12T10:22:48.815Z,9.20
2019-01-12T10:25:18.158Z,12.63
2019-01-12T10:27:47.834Z,8.83
2019-01-12T10:30:22.083Z,12.70
2019-01-12T10:32:51.276Z,17.15
2019-01-12T10:35:20.487Z,7.75
2019-01-12T10:37:49.624Z,8.90
2019-01-12T10:40:19.452Z,8.08
2019-01-12T10:42:48.638Z,10.50
2019-01-12T10:45:20.285Z,10.00
2019-01-12T10:47:49.834Z,7.72
2019-01-12T10:50:29.443Z,12.78
2019-01-12T10:52:58.539Z,10.63
2019-01-12T10:55:28.751Z,9.53
2019-01-12T10:57:58.410Z,10.05
2019-01-12T11:00:30.666Z,9.35
2019-01-12T11:03:01.312Z,9.88
2019-01-12T11:05:30.982Z,7.55
2019-01-12T11:08:00.433Z,7.58
2019-01-12T11:10:30.493Z,6.97
2019-01-12T11:13:02.099Z,9.50
2019-01-12T11:15:31.310Z,8.10
2019-01-12T11:18:00.538Z,8.98
2019-01-12T11:20:30.843Z,13.85
2019-01-12T11:23:00.071Z,11.25
2019-01-12T11:25:33.585Z,7.67
2019-01-12T11:28:01.093Z,9.43
2019-01-12T11:30:31.281Z,10.85
2019-01-12T11:33:00.449Z,9.40
2019-01-12T11:35:29.649Z,14.03
2019-01-12T11:37:58.787Z,16.17
2019-01-12T11:40:27.899Z,13.43
2019-01-12T11:42:56.992Z,16.77
2019-01-12T11:45:26.714Z,11.75
2019-01-12T11:47:55.909Z,19.75
2019-01-12T11:50:25.089Z,16.10
2019-01-12T11:52:54.212Z,14.07
2019-01-12T11:55:23.410Z,12.47
2019-01-12T11:57:52.534Z,16.02
2019-01-12T12:00:24.006Z,12.80
2019-01-12T12:02:53.231Z,11.57
2019-01-12T12:05:22.403Z,10.98
2019-01-12T12:07:52.974Z,13.10
2019-01-12T12:10:22.605Z,13.38
2019-01-12T12:12:51.763Z,15.25
2019-01-12T12:15:21.735Z,12.43
2019-01-12T12:17:50.837Z,7.08
2019-01-12T12:20:21.875Z,10.68
2019-01-12T12:22:51.319Z,9.63
2019-01-12T12:25:20.465Z,10.35
2019-01-12T12:27:49.679Z,10.82
2019-01-12T12:30:24.334Z,9.20
2019-01-12T12:32:53.472Z,14.80
2019-01-12T12:35:22.565Z,16.40
2019-01-12T12:37:52.723Z,14.28
2019-01-12T12:40:22.569Z,6.25
2019-01-12T12:42:53.141Z,13.35
2019-01-12T12:45:25.547Z,9.95
2019-01-12T12:47:54.703Z,11.20
2019-01-12T12:50:23.887Z,9.48
2019-01-12T12:52:53.112Z,8.05
2019-01-12T12:55:22.212Z,13.95
2019-01-12T12:57:51.328Z,8.23
2019-01-12T13:00:22.108Z,9.08
2019-01-12T13:02:51.254Z,11.93
2019-01-12T13:05:20.383Z,9.60
2019-01-12T13:07:49.524Z,13.75
2019-01-12T13:10:22.404Z,10.32
2019-01-12T13:12:51.534Z,7.90
2019-01-12T13:15:22.303Z,9.30
2019-01-12T13:17:51.408Z,9.35
2019-01-12T13:20:20.927Z,10.60
2019-01-12T13:22:52.412Z,8.73
2019-01-12T13:25:21.514Z,8.43
2019-01-12T13:27:50.772Z,10.48
2019-01-12T13:30:25.182Z,11.88
2019-01-12T13:32:54.338Z,10.08
2019-01-12T13:35:23.493Z,7.58
2019-01-12T13:37:52.620Z,12.10
2019-01-12T13:40:24.548Z,10.65
2019-01-12T13:42:53.752Z,11.08
2019-01-12T13:45:23.006Z,8.30
2019-01-12T13:47:52.321Z,6.62
2019-01-12T13:50:24.556Z,8.65
2019-01-12T13:52:54.682Z,9.38
2019-01-12T13:55:23.860Z,6.03
2019-01-12T13:57:52.988Z,14.40
2019-01-12T14:00:24.398Z,5.50
2019-01-12T14:02:53.664Z,8.20
2019-01-12T14:05:22.762Z,7.83
2019-01-12T14:07:56.527Z,13.15
2019-01-12T14:10:24.164Z,9.63
2019-01-12T14:12:53.386Z,12.28
2019-01-12T14:15:22.733Z,10.80
2019-01-12T14:17:51.934Z,9.75
2019-01-12T14:20:23.318Z,6.42
2019-01-12T14:22:52.522Z,13.25
2019-01-12T14:25:21.985Z,11.30
2019-01-12T14:27:54.891Z,9.30
2019-01-12T14:30:23.066Z,8.43
2019-01-12T14:32:52.377Z,7.60
2019-01-12T14:35:23.178Z,10.25
2019-01-12T14:37:52.703Z,13.40
2019-01-12T14:40:21.850Z,10.13
2019-01-12T14:42:50.970Z,6.12
2019-01-12T14:45:25.403Z,10.20
2019-01-12T14:47:54.603Z,5.90
2019-01-12T14:50:23.788Z,7.75
2019-01-12T14:52:52.979Z,5.50
2019-01-12T14:55:22.467Z,7.28
2019-01-12T14:57:51.658Z,11.68
2019-01-12T15:00:22.829Z,11.83
2019-01-12T15:02:52.164Z,7.83
2019-01-12T15:05:26.015Z,7.55
2019-01-12T15:07:55.047Z,7.50
2019-01-12T15:10:24.084Z,7.92
2019-01-12T15:12:55.436Z,13.20
2019-01-12T15:15:24.450Z,8.50
2019-01-12T15:17:53.501Z,8.13
2019-01-12T15:20:24.361Z,14.00
2019-01-12T15:22:53.389Z,9.50
2019-01-12T15:25:22.441Z,10.78
2019-01-12T15:27:51.514Z,6.85
2019-01-12T15:30:22.618Z,8.00
2019-01-12T15:32:51.623Z,8.03
2019-01-12T15:35:21.482Z,9.35
2019-01-12T15:37:50.554Z,12.05
2019-01-12T15:40:22.058Z,9.60
2019-01-12T15:42:51.118Z,14.50
2019-01-12T15:45:23.383Z,13.30
2019-01-12T15:47:53.512Z,16.27
2019-01-12T15:50:24.305Z,11.80
2019-01-12T15:52:53.483Z,14.45
2019-01-12T15:55:22.786Z,16.77
2019-01-12T15:57:53.124Z,13.20
2019-01-12T16:00:24.367Z,8.93
2019-01-12T16:02:53.433Z,11.15
2019-01-12T16:05:22.442Z,13.05
2019-01-12T16:07:51.468Z,12.75
2019-01-12T16:10:20.616Z,11.20
2019-01-12T16:12:49.618Z,8.10
2019-01-12T16:15:20.775Z,19.10
2019-01-12T16:17:52.102Z,7.85
2019-01-12T16:20:28.929Z,14.47
2019-01-12T16:22:57.970Z,8.85
2019-01-12T16:25:26.956Z,13.93
2019-01-12T16:27:55.979Z,11.70
2019-01-12T16:30:25.021Z,10.98
2019-01-12T16:32:54.148Z,13.15
2019-01-12T16:35:23.182Z,10.10
2019-01-12T16:37:52.410Z,9.58
2019-01-12T16:40:23.960Z,8.48
2019-01-12T16:42:53.121Z,13.35
2019-01-12T16:45:22.158Z,12.28
2019-01-12T16:47:51.207Z,16.75
2019-01-12T16:50:20.253Z,14.60
2019-01-12T16:52:49.341Z,10.13
2019-01-12T16:55:18.456Z,8.68
2019-01-12T16:57:47.773Z,12.25
2019-01-12T17:00:24.201Z,10.50
2019-01-12T17:02:53.382Z,9.70
2019-01-12T17:05:24.292Z,10.25
2019-01-12T17:07:53.411Z,12.30
2019-01-12T17:10:22.724Z,7.78
2019-01-12T17:12:51.943Z,14.85
2019-01-12T17:15:22.437Z,8.40
2019-01-12T17:17:51.595Z,17.52
2019-01-12T17:20:26.073Z,9.83
2019-01-12T17:23:01.093Z,9.40
2019-01-12T17:25:30.169Z,12.50
2019-01-12T17:27:59.192Z,12.98
2019-01-12T17:30:28.324Z,16.52
2019-01-12T17:32:57.517Z,12.95
2019-01-12T17:35:29.441Z,13.78
2019-01-12T17:37:57.754Z,10.05
2019-01-12T17:40:26.816Z,9.53
2019-01-12T17:42:55.837Z,12.47
2019-01-12T17:45:25.800Z,10.08
2019-01-12T17:47:54.827Z,10.55
2019-01-12T17:50:27.054Z,7.50
2019-01-12T17:52:56.539Z,8.13
2019-01-12T17:55:26.724Z,10.58
2019-01-12T17:57:55.749Z,11.45
2019-01-12T18:00:31.756Z,9.90
2019-01-12T18:03:00.798Z,12.55
2019-01-12T18:05:29.769Z,15.78
2019-01-12T18:07:59.066Z,12.15
2019-01-12T18:10:28.114Z,8.75
2019-01-12T18:13:05.037Z,11.03
2019-01-12T18:15:34.895Z,12.60
2019-01-12T18:18:04.061Z,8.28
2019-01-12T18:20:33.096Z,11.48
2019-01-12T18:23:02.172Z,9.60
2019-01-12T18:25:32.362Z,14.63
2019-01-12T18:28:01.651Z,31.93
2019-01-12T18:30:31.818Z,13.50
2019-01-12T18:33:03.248Z,16.45
2019-01-12T18:35:33.752Z,10.40
2019-01-12T18:38:02.934Z,13.45
2019-01-12T18:40:32.012Z,8.38
2019-01-12T18:43:09.966Z,13.50
2019-01-12T18:45:40.626Z,12.53
2019-01-12T18:48:09.606Z,15.28
2019-01-12T18:50:38.657Z,16.42
2019-01-12T18:53:07.697Z,12.70
2019-01-12T18:55:36.904Z,14.40
2019-01-12T18:58:05.916Z,8.60
2019-01-12T19:00:34.957Z,14.00
2019-01-12T19:03:04.490Z,14.30
2019-01-12T19:05:33.811Z,17.25
2019-01-12T19:08:02.883Z,19.55
2019-01-12T19:10:33.239Z,13.65
2019-01-12T19:13:02.297Z,18.45
2019-01-12T19:15:31.954Z,8.93
2019-01-12T19:18:00.989Z,15.00
2019-01-12T19:20:30.209Z,14.83
2019-01-12T19:22:59.425Z,17.87
2019-01-12T19:25:28.441Z,16.32
2019-01-12T19:27:57.458Z,12.68
2019-01-12T19:30:26.496Z,16.87
2019-01-12T19:32:55.489Z,12.13
2019-01-12T19:35:25.565Z,13.30
2019-01-12T19:37:54.544Z,13.03
2019-01-12T19:40:24.996Z,17.27
2019-01-12T19:42:54.040Z,18.32
2019-01-12T19:45:25.788Z,11.93
2019-01-12T19:47:54.867Z,14.33
2019-01-12T19:50:27.866Z,12.75
2019-01-12T19:52:57.204Z,13.35
2019-01-12T19:55:27.334Z,13.22
2019-01-12T19:57:57.105Z,10.38
2019-01-12T20:00:31.677Z,10.68
2019-01-12T20:03:01.558Z,9.78
2019-01-12T20:05:33.955Z,9.73
2019-01-12T20:08:03.909Z,15.63
2019-01-12T20:10:35.993Z,12.68
2019-01-12T20:13:10.004Z,12.53
2019-01-12T20:15:41.026Z,11.65
2019-01-12T20:18:10.200Z,11.43
2019-01-12T20:20:43.722Z,12.10
2019-01-12T20:23:13.436Z,12.05
2019-01-12T20:25:43.176Z,16.32
2019-01-12T20:28:17.784Z,9.83
2019-01-12T20:31:30.091Z,12.90
2019-01-12T20:34:14.064Z,10.32
2019-01-12T20:37:09.659Z,9.68
2019-01-12T20:40:12.166Z,12.82
2019-01-12T20:43:02.097Z,10.50
2019-01-12T20:45:43.159Z,7.83
2019-01-12T20:48:28.218Z,13.58
2019-01-12T20:51:21.791Z,20.57
2019-01-12T20:54:29.813Z,12.05
2019-01-12T20:57:55.090Z,14.63
2019-01-12T21:01:06.283Z,10.20
2019-01-12T21:03:55.391Z,12.88
2019-01-12T21:07:16.142Z,9.38
2019-01-12T21:10:09.770Z,10.88
2019-01-12T21:13:10.970Z,14.58
2019-01-12T21:15:44.802Z,14.03
2019-01-12T21:18:13.851Z,14.65
2019-01-12T21:20:43.027Z,10.53
2019-01-12T21:23:12.042Z,12.15
2019-01-12T21:25:41.053Z,12.82
2019-01-12T21:28:11.741Z,12.33
2019-01-12T21:30:40.801Z,12.55
2019-01-12T21:33:10.007Z,13.70
2019-01-12T21:35:40.109Z,7.85
2019-01-12T21:38:10.670Z,14.13
2019-01-12T21:40:39.758Z,12.95
2019-01-12T21:43:08.773Z,12.68
2019-01-12T21:45:37.722Z,15.43
2019-01-12T21:48:07.744Z,10.78
2019-01-12T21:50:36.762Z,8.83
2019-01-12T21:53:05.818Z,9.88
2019-01-12T21:55:34.854Z,7.78
2019-01-12T21:58:04.118Z,11.68
2019-01-12T22:00:33.197Z,16.17
2019-01-12T22:03:02.247Z,10.95
2019-01-12T22:05:31.509Z,15.68
2019-01-12T22:08:02.347Z,13.45
2019-01-12T22:10:31.545Z,16.70
2019-01-12T22:13:00.564Z,16.82
2019-01-12T22:15:29.689Z,15.05
2019-01-12T22:17:58.743Z,12.55
2019-01-12T22:20:27.802Z,10.68
2019-01-12T22:22:56.958Z,11.85
2019-01-12T22:25:26.160Z,11.30
2019-01-12T22:27:55.294Z,12.18
2019-01-12T22:30:24.444Z,7.62
2019-01-12T22:32:53.486Z,10.13
2019-01-12T22:35:22.522Z,12.80
2019-01-12T22:37:51.524Z,11.83
2019-01-12T22:40:20.989Z,7.03
2019-01-12T22:42:50.129Z,10.55
2019-01-12T22:45:19.205Z,14.07
2019-01-12T22:47:51.350Z,10.18
2019-01-12T22:50:20.459Z,7.65
2019-01-12T22:52:49.558Z,12.70
2019-01-12T22:55:18.573Z,12.70
2019-01-12T22:57:47.583Z,11.48
2019-01-12T23:00:33.159Z,12.23
2019-01-12T23:03:02.185Z,11.38
2019-01-12T23:05:31.292Z,11.28
2019-01-12T23:08:02.632Z,11.70
2019-01-12T23:10:33.075Z,9.58
2019-01-12T23:13:02.969Z,13.20
2019-01-12T23:15:31.988Z,16.62
2019-01-12T23:18:01.084Z,14.20
2019-01-12T23:20:30.326Z,13.93
2019-01-12T23:22:59.284Z,10.53
2019-01-12T23:25:28.570Z,18.05
2019-01-12T23:27:57.714Z,15.00
2019-01-12T23:30:28.318Z,9.05
2019-01-12T23:32:57.366Z,9.55
2019-01-12T23:35:29.572Z,12.40
2019-01-12T23:38:02.435Z,12.03
2019-01-12T23:40:31.600Z,11.60
2019-01-12T23:43:05.997Z,10.00
2019-01-12T23:45:34.933Z,11.93
2019-01-12T23:48:04.099Z,10.60
2019-01-12T23:50:33.184Z,13.68
2019-01-12T23:53:02.256Z,12.78
2019-01-12T23:55:31.310Z,12.78
2019-01-12T23:58:00.432Z,8.58
